Time;durP1;ratioP1;P1;durP2;ratioP2;P2;SDS_P1;SDS_P2;PMS_P1;PMS_P2;Temp;Humidity;BMP_temperature;BMP_pressure;BME280_temperature;BME280_humidity;BME280_pressure;Samples;Min_cycle;Max_cycle;Signal;HPM_P1;HPM_P2
2021/12/22 00:00:39;;;;;;;11.65;10.45;;;2.70;59.70;;;-142.21;100.00;112049.66;5095539;28;20216;-78
2021/12/22 00:03:08;;;;;;;14.77;10.80;;;2.60;59.80;;;-142.21;100.00;112049.66;5093923;28;20251;-77
2021/12/22 00:05:43;;;;;;;13.02;10.95;;;2.60;60.00;;;-142.21;100.00;112049.66;5093881;28;20208;-78
2021/12/22 00:08:12;;;;;;;14.15;10.40;;;2.70;60.10;;;-142.21;100.00;112049.66;5093034;28;20203;-78
2021/12/22 00:10:49;;;;;;;14.02;11.45;;;2.60;60.10;;;-142.21;100.00;112049.66;5092801;28;20200;-79
2021/12/22 00:13:16;;;;;;;14.90;10.80;;;2.60;60.00;;;-142.21;100.00;112049.66;5092701;28;20275;-79
2021/12/22 00:15:50;;;;;;;14.35;10.63;;;2.70;59.20;;;-142.21;100.00;112049.66;5109815;28;20283;-79
2021/12/22 00:18:17;;;;;;;11.93;9.75;;;2.60;59.30;;;-142.21;100.00;112049.66;5113874;28;20228;-79
2021/12/22 00:20:44;;;;;;;13.05;10.27;;;2.50;59.70;;;-142.21;100.00;112049.66;5114390;28;20274;-79
2021/12/22 00:23:11;;;;;;;16.20;11.52;;;2.50;59.80;;;-142.21;100.00;112049.66;5113729;28;20210;-78
2021/12/22 00:25:39;;;;;;;13.43;11.23;;;2.50;60.00;;;-142.21;100.00;112049.66;5114521;28;20571;-78
2021/12/22 00:28:07;;;;;;;14.00;11.00;;;2.50;60.00;;;-142.21;100.00;112049.66;5114194;28;20207;-78
2021/12/22 00:30:36;;;;;;;15.48;10.48;;;2.40;60.00;;;-142.21;100.00;112049.66;5113081;28;20208;-77
2021/12/22 00:33:05;;;;;;;14.63;11.25;;;2.50;60.40;;;-142.21;100.00;112049.66;5113448;28;20667;-78
2021/12/22 00:35:40;;;;;;;12.75;10.68;;;2.50;60.60;;;-142.21;100.00;112049.66;5110626;28;20211;-79
2021/12/22 00:38:10;;;;;;;14.05;11.90;;;2.50;60.70;;;-142.21;100.00;112049.66;5093245;28;20196;-81
2021/12/22 00:40:38;;;;;;;13.68;10.60;;;2.50;60.70;;;-142.21;100.00;112049.66;5091679;28;20221;-81
2021/12/22 00:43:06;;;;;;;15.48;11.25;;;2.50;60.20;;;-142.21;100.00;112049.66;5093109;28;20208;-79
2021/12/22 00:45:35;;;;;;;16.08;11.45;;;2.50;60.40;;;-142.21;100.00;112049.66;5092640;28;20295;-79
2021/12/22 00:48:03;;;;;;;14.32;10.95;;;2.50;60.80;;;-142.21;100.00;112049.66;5093416;28;20247;-79
2021/12/22 00:50:31;;;;;;;14.68;11.30;;;2.50;61.60;;;-142.21;100.00;112049.66;5093226;28;20231;-78
2021/12/22 00:52:58;;;;;;;14.63;11.68;;;2.50;61.40;;;-142.21;100.00;112049.66;5093176;28;20231;-77
2021/12/22 00:55:27;;;;;;;15.80;12.60;;;2.50;61.10;;;-142.21;100.00;112049.66;5092823;28;20287;-80
2021/12/22 00:57:55;;;;;;;14.43;12.00;;;2.50;61.30;;;-142.21;100.00;112049.66;5092382;28;20672;-78
2021/12/22 01:00:27;;;;;;;15.82;12.30;;;2.60;61.30;;;-142.21;100.00;112049.66;5092713;28;20205;-78
2021/12/22 01:03:01;;;;;;;13.85;11.75;;;2.50;61.40;;;-142.21;100.00;112049.66;5092323;28;20224;-79
2021/12/22 01:05:28;;;;;;;17.70;13.18;;;2.50;61.20;;;-142.21;100.00;112049.66;5092426;28;20284;-79
2021/12/22 01:08:02;;;;;;;13.98;10.85;;;2.50;61.00;;;-142.21;100.00;112049.66;5092986;28;20288;-78
2021/12/22 01:10:31;;;;;;;14.82;11.85;;;2.50;61.90;;;-142.21;100.00;112049.66;5093053;28;20601;-79
2021/12/22 01:13:02;;;;;;;14.60;11.68;;;2.60;60.60;;;-142.21;100.00;112049.66;5092168;28;20295;-78
2021/12/22 01:15:33;;;;;;;16.35;13.18;;;2.60;60.40;;;-142.21;100.00;112049.66;5092513;28;20221;-78
2021/12/22 01:18:13;;;;;;;15.05;10.80;;;2.50;60.00;;;-142.21;100.00;112049.66;5093451;28;20208;-80
2021/12/22 01:20:58;;;;;;;14.80;11.35;;;2.50;59.80;;;-142.21;100.00;112049.66;5113389;28;20237;-80
2021/12/22 01:23:25;;;;;;;14.07;11.15;;;2.50;59.70;;;-142.21;100.00;112049.66;5113180;28;20211;-79
2021/12/22 01:25:54;;;;;;;18.48;13.15;;;2.40;59.80;;;-142.21;100.00;112049.66;5112814;28;20256;-78
2021/12/22 01:28:23;;;;;;;14.32;11.77;;;2.40;59.40;;;-142.21;100.00;112049.66;5112585;28;20290;-77
2021/12/22 01:31:02;;;;;;;15.45;12.50;;;2.50;59.30;;;-142.21;100.00;112049.66;5112773;28;20199;-79
2021/12/22 01:33:30;;;;;;;15.57;12.93;;;2.40;59.20;;;-142.21;100.00;112049.66;5112102;28;20239;-79
2021/12/22 01:35:59;;;;;;;13.82;11.02;;;2.30;59.40;;;-142.21;100.00;112049.66;5112676;28;20192;-77
2021/12/22 01:38:32;;;;;;;16.20;12.88;;;2.30;59.40;;;-142.21;100.00;112049.66;5109966;28;20252;-79
2021/12/22 01:41:00;;;;;;;15.27;12.30;;;2.20;59.30;;;-142.21;100.00;112049.66;5112927;28;20212;-80
2021/12/22 01:43:27;;;;;;;14.27;12.00;;;2.20;59.10;;;-142.21;100.00;112049.66;5112429;28;20290;-79
2021/12/22 01:46:32;;;;;;;13.20;10.90;;;2.20;58.60;;;-142.21;100.00;112049.66;5112928;28;20298;-78
2021/12/22 01:49:10;;;;;;;14.23;11.40;;;2.20;58.40;;;-142.21;100.00;112049.66;5112534;28;20250;-80
2021/12/22 01:51:46;;;;;;;15.40;11.90;;;2.10;58.70;;;-142.21;100.00;112049.66;5111539;28;20277;-78
2021/12/22 01:54:33;;;;;;;14.55;12.40;;;2.00;59.30;;;-142.21;100.00;112049.66;5112188;28;20180;-77
2021/12/22 01:57:07;;;;;;;13.73;11.65;;;1.90;59.50;;;-142.21;100.00;112049.66;5112697;28;20687;-80
2021/12/22 01:59:34;;;;;;;13.68;11.55;;;1.90;59.80;;;-142.21;100.00;112049.66;5111077;28;20374;-78
2021/12/22 02:02:06;;;;;;;13.45;11.48;;;1.80;60.00;;;-142.21;100.00;112049.66;5112718;28;20318;-78
2021/12/22 02:04:35;;;;;;;14.77;11.82;;;1.80;60.30;;;-142.21;100.00;112049.66;5112360;28;20303;-76
2021/12/22 02:07:02;;;;;;;16.55;12.30;;;1.80;60.00;;;-142.21;100.00;112049.66;5112549;28;20677;-78
2021/12/22 02:09:47;;;;;;;15.18;12.43;;;1.80;60.20;;;-142.21;100.00;112049.66;5111866;28;20200;-77
2021/12/22 02:12:16;;;;;;;15.05;12.23;;;1.70;60.00;;;-142.21;100.00;112049.66;5112371;28;20207;-79
2021/12/22 02:14:49;;;;;;;14.52;12.32;;;1.80;60.50;;;-142.21;100.00;112049.66;5109351;28;20207;-78
2021/12/22 02:17:17;;;;;;;18.20;12.57;;;1.70;60.50;;;-142.21;100.00;112049.66;5112790;28;20193;-79
2021/12/22 02:19:48;;;;;;;13.73;11.60;;;1.50;60.40;;;-142.21;100.00;112049.66;5111724;28;20243;-78
2021/12/22 02:22:18;;;;;;;15.98;12.55;;;1.50;60.90;;;-142.21;100.00;112049.66;5112263;28;20261;-78
2021/12/22 02:24:52;;;;;;;18.05;12.90;;;1.60;60.90;;;-142.21;100.00;112049.66;5111610;28;20671;-79
2021/12/22 02:27:28;;;;;;;14.73;11.68;;;1.40;60.80;;;-142.21;100.00;112049.66;5112093;28;20271;-78
2021/12/22 02:30:04;;;;;;;14.32;12.50;;;1.30;60.90;;;-142.21;100.00;112049.66;5103042;28;20691;-80
2021/12/22 02:35:28;;;;;;;14.93;12.50;;;1.20;60.80;;;-142.21;100.00;112049.66;5093825;28;20232;-80
2021/12/22 02:37:55;;;;;;;13.25;11.13;;;1.20;60.70;;;-142.21;100.00;112049.66;5113451;28;20202;-77
2021/12/22 02:40:27;;;;;;;13.43;11.75;;;1.30;60.70;;;-142.21;100.00;112049.66;5116106;28;20303;-78
2021/12/22 02:43:04;;;;;;;15.73;11.90;;;1.20;60.60;;;-142.21;100.00;112049.66;5118528;28;20240;-78
2021/12/22 02:45:38;;;;;;;15.95;12.10;;;1.20;60.40;;;-142.21;100.00;112049.66;5128505;28;20203;-78
2021/12/22 02:48:06;;;;;;;13.80;12.18;;;1.20;60.70;;;-142.21;100.00;112049.66;5122370;28;20283;-79
2021/12/22 02:50:36;;;;;;;14.40;11.93;;;1.20;60.00;;;-142.21;100.00;112049.66;5115842;28;20316;-79
2021/12/22 02:53:09;;;;;;;13.63;12.20;;;1.10;60.50;;;-142.21;100.00;112049.66;5115197;28;20200;-78
2021/12/22 02:55:47;;;;;;;14.63;11.82;;;1.10;60.40;;;-142.21;100.00;112049.66;5115725;27;20273;-79
2021/12/22 02:58:27;;;;;;;14.68;11.48;;;1.10;59.80;;;-142.21;100.00;112049.66;5116002;28;20184;-78
2021/12/22 03:01:09;;;;;;;13.95;11.75;;;1.20;60.20;;;-142.21;100.00;112049.66;5115109;28;20180;-77
2021/12/22 03:03:53;;;;;;;13.45;11.70;;;1.10;59.80;;;-142.21;100.00;112049.66;5113675;28;20212;-79
2021/12/22 03:06:29;;;;;;;12.77;10.68;;;1.20;59.90;;;-142.21;100.00;112049.66;5115269;28;20195;-79
2021/12/22 03:08:56;;;;;;;14.07;11.57;;;1.10;59.90;;;-142.21;100.00;112049.66;5115310;28;20274;-79
2021/12/22 03:11:24;;;;;;;14.18;11.80;;;1.10;59.90;;;-142.21;100.00;112049.66;5115376;28;20286;-80
2021/12/22 03:13:52;;;;;;;14.65;12.20;;;1.00;60.70;;;-142.21;100.00;112049.66;5115622;28;20295;-79
2021/12/22 03:16:20;;;;;;;14.82;12.00;;;0.90;60.70;;;-142.21;100.00;112049.66;5114697;28;21128;-81
2021/12/22 03:18:47;;;;;;;16.00;11.80;;;0.90;59.80;;;-142.21;100.00;112049.66;5115161;28;20203;-78
2021/12/22 03:21:23;;;;;;;15.52;12.35;;;0.90;59.70;;;-142.21;100.00;112049.66;5110304;28;20291;-79
2021/12/22 03:23:54;;;;;;;14.77;11.73;;;0.90;59.70;;;-142.21;100.00;112049.66;5095213;28;20188;-78
2021/12/22 03:26:23;;;;;;;13.18;11.60;;;0.90;59.90;;;-142.21;100.00;112049.66;5094692;28;20276;-79
2021/12/22 03:28:54;;;;;;;16.90;12.95;;;0.80;59.70;;;-142.21;100.00;112049.66;5094694;28;20201;-79
2021/12/22 03:31:21;;;;;;;16.30;12.38;;;0.80;60.10;;;-142.21;100.00;112049.66;5094375;28;20276;-80
2021/12/22 03:33:49;;;;;;;13.27;11.65;;;0.80;60.00;;;-142.21;100.00;112049.66;5094107;28;20791;-80
2021/12/22 03:36:16;;;;;;;14.52;12.45;;;0.80;60.00;;;-142.21;100.00;112049.66;5094251;28;20246;-79
2021/12/22 03:38:46;;;;;;;18.70;12.57;;;0.90;59.90;;;-142.21;100.00;112049.66;5094367;28;20208;-79
2021/12/22 03:41:13;;;;;;;15.02;11.70;;;0.90;59.70;;;-142.21;100.00;112049.66;5094688;28;20537;-79
2021/12/22 03:43:41;;;;;;;16.13;11.55;;;0.90;59.50;;;-142.21;100.00;112049.66;5094330;28;20295;-79
2021/12/22 03:46:08;;;;;;;14.70;12.20;;;0.90;59.60;;;-142.21;100.00;112049.66;5094152;28;20250;-79
2021/12/22 03:48:35;;;;;;;14.55;11.75;;;0.80;60.00;;;-142.21;100.00;112049.66;5093001;28;20263;-79
2021/12/22 03:51:08;;;;;;;15.15;12.48;;;0.80;59.90;;;-142.21;100.00;112049.66;5101141;28;20216;-78
2021/12/22 03:53:36;;;;;;;13.77;11.13;;;0.90;59.90;;;-142.21;100.00;112049.66;5114347;28;20279;-79
2021/12/22 03:56:06;;;;;;;13.85;10.82;;;0.70;60.00;;;-142.21;100.00;112049.66;5114799;28;20249;-80
2021/12/22 03:58:35;;;;;;;15.15;11.18;;;0.70;60.80;;;-142.21;100.00;112049.66;5113755;28;20286;-80
2021/12/22 04:01:03;;;;;;;15.20;11.38;;;0.70;59.50;;;-142.21;100.00;112049.66;5112203;28;20215;-79
2021/12/22 04:03:33;;;;;;;14.82;10.85;;;0.80;60.00;;;-142.21;100.00;112049.66;5113928;28;20314;-79
2021/12/22 04:06:01;;;;;;;14.65;11.48;;;0.90;60.80;;;-142.21;100.00;112049.66;5114640;28;20188;-79
2021/12/22 04:08:29;;;;;;;15.20;12.20;;;1.00;60.20;;;-142.21;100.00;112049.66;5078955;28;20204;-80
2021/12/22 04:10:56;;;;;;;15.65;11.10;;;0.90;60.10;;;-142.21;100.00;112049.66;5114500;28;20691;-80
2021/12/22 04:13:24;;;;;;;13.80;11.80;;;0.80;60.10;;;-142.21;100.00;112049.66;5114506;28;20196;-79
2021/12/22 04:15:55;;;;;;;17.58;12.20;;;1.00;60.90;;;-142.21;100.00;112049.66;5113905;28;20231;-78
2021/12/22 04:18:23;;;;;;;17.35;12.70;;;1.10;61.00;;;-142.21;100.00;112049.66;5115541;28;20234;-79
2021/12/22 04:20:56;;;;;;;14.98;12.45;;;1.10;60.90;;;-142.21;100.00;112049.66;5113251;28;20254;-80
2021/12/22 04:23:23;;;;;;;14.95;11.32;;;1.10;60.90;;;-142.21;100.00;112049.66;5115088;28;20244;-80
2021/12/22 04:25:52;;;;;;;11.85;10.50;;;1.10;60.70;;;-142.21;100.00;112049.66;5114341;28;20615;-78
2021/12/22 04:28:20;;;;;;;14.50;11.93;;;1.10;60.50;;;-142.21;100.00;112049.66;5115286;28;20600;-79
2021/12/22 04:30:50;;;;;;;21.45;12.20;;;1.10;60.30;;;-142.21;100.00;112049.66;5113849;28;20651;-79
2021/12/22 04:33:19;;;;;;;15.48;12.15;;;1.20;60.60;;;-142.21;100.00;112049.66;5114162;28;20188;-79
2021/12/22 04:35:47;;;;;;;17.60;12.38;;;1.20;61.00;;;-142.21;100.00;112049.66;5113783;28;20193;-77
2021/12/22 04:38:14;;;;;;;17.33;12.18;;;1.30;61.20;;;-142.21;100.00;112049.66;5114638;28;20698;-78
2021/12/22 04:40:48;;;;;;;14.23;11.18;;;1.20;60.80;;;-142.21;100.00;112049.66;5114626;28;20241;-79
2021/12/22 04:43:15;;;;;;;15.25;11.65;;;1.30;61.00;;;-142.21;100.00;112049.66;5114599;28;20299;-78
2021/12/22 04:45:43;;;;;;;15.48;12.75;;;1.20;60.90;;;-142.21;100.00;112049.66;5114013;28;20203;-79
2021/12/22 04:48:12;;;;;;;16.60;11.77;;;1.20;61.10;;;-142.21;100.00;112049.66;5113244;28;20207;-79
2021/12/22 04:50:40;;;;;;;17.05;11.70;;;1.30;61.10;;;-142.21;100.00;112049.66;5113717;28;20235;-79
2021/12/22 04:53:11;;;;;;;18.52;13.10;;;1.30;61.50;;;-142.21;100.00;112049.66;5113170;28;20228;-79
2021/12/22 04:55:39;;;;;;;15.05;12.68;;;1.30;61.80;;;-142.21;100.00;112049.66;5113629;28;20540;-78
2021/12/22 04:58:08;;;;;;;15.10;12.35;;;1.20;62.60;;;-142.21;100.00;112049.66;5112776;28;20203;-78
2021/12/22 05:00:39;;;;;;;18.13;13.13;;;1.20;63.10;;;-142.21;100.00;112049.66;5112822;28;20252;-78
2021/12/22 05:03:07;;;;;;;17.20;13.77;;;1.20;63.70;;;-142.21;100.00;112049.66;5113301;28;20254;-80
2021/12/22 05:05:37;;;;;;;18.02;14.15;;;1.10;64.50;;;-142.21;100.00;112049.66;5112983;28;20612;-78
2021/12/22 05:08:05;;;;;;;20.90;15.15;;;1.10;64.40;;;-142.21;100.00;112049.66;5112851;28;20207;-77
2021/12/22 05:10:32;;;;;;;18.38;14.25;;;1.10;64.40;;;-142.21;100.00;112049.66;5111591;28;20226;-80
2021/12/22 05:13:00;;;;;;;19.60;14.88;;;1.10;65.00;;;-142.21;100.00;112049.66;5112911;28;20257;-79
2021/12/22 05:15:36;;;;;;;19.20;15.00;;;1.10;65.20;;;-142.21;100.00;112049.66;5111458;28;20204;-80
2021/12/22 05:18:25;;;;;;;19.10;14.73;;;1.00;65.10;;;-142.21;100.00;112049.66;5113597;28;20210;-81
2021/12/22 05:20:54;;;;;;;18.70;13.65;;;1.00;65.50;;;-142.21;100.00;112049.66;5113620;28;20207;-79
2021/12/22 05:23:22;;;;;;;17.65;15.18;;;1.00;65.00;;;-142.21;100.00;112049.66;5112813;28;20220;-80
2021/12/22 05:25:49;;;;;;;16.80;14.73;;;1.10;65.00;;;-142.21;100.00;112049.66;5113231;28;20249;-79
2021/12/22 05:28:16;;;;;;;17.52;14.52;;;1.20;64.50;;;-142.21;100.00;112049.66;5112234;28;20204;-79
2021/12/22 05:30:46;;;;;;;19.58;15.73;;;1.10;64.50;;;-142.21;100.00;112049.66;5113156;28;20246;-80
2021/12/22 05:33:14;;;;;;;19.40;15.13;;;1.00;64.80;;;-142.21;100.00;112049.66;5112734;28;20241;-79
2021/12/22 05:35:41;;;;;;;18.52;14.73;;;1.00;65.20;;;-142.21;100.00;112049.66;5112394;28;20184;-79
2021/12/22 05:38:10;;;;;;;20.98;15.73;;;1.00;65.30;;;-142.21;100.00;112049.66;5112800;28;20244;-79
2021/12/22 05:40:37;;;;;;;19.30;15.52;;;1.00;65.40;;;-142.21;100.00;112049.66;5112592;28;20239;-80
2021/12/22 05:43:04;;;;;;;19.13;15.23;;;1.10;65.10;;;-142.21;100.00;112049.66;5112480;28;20586;-81
2021/12/22 05:45:31;;;;;;;18.20;14.50;;;1.00;64.60;;;-142.21;100.00;112049.66;5112509;28;20249;-79
2021/12/22 05:47:59;;;;;;;19.92;14.90;;;1.10;64.60;;;-142.21;100.00;112049.66;5112576;28;20246;-79
2021/12/22 05:50:26;;;;;;;18.42;14.32;;;1.10;64.50;;;-142.21;100.00;112049.66;5111988;28;20254;-80
2021/12/22 05:52:59;;;;;;;19.23;15.35;;;1.10;64.50;;;-142.21;100.00;112049.66;5108998;28;20200;-79
2021/12/22 05:55:28;;;;;;;18.73;15.32;;;1.10;64.70;;;-142.21;100.00;112049.66;5112589;28;20279;-79
2021/12/22 05:57:55;;;;;;;19.25;15.60;;;1.10;64.50;;;-142.21;100.00;112049.66;5113386;28;20327;-79
2021/12/22 06:00:23;;;;;;;18.10;14.63;;;1.10;64.40;;;-142.21;100.00;112049.66;5112912;28;20208;-80
2021/12/22 06:02:51;;;;;;;19.17;14.13;;;1.20;65.50;;;-142.21;100.00;112049.66;5112201;28;20285;-78
2021/12/22 06:05:19;;;;;;;19.33;15.57;;;1.20;64.40;;;-142.21;100.00;112049.66;5112806;28;20283;-81
2021/12/22 06:07:47;;;;;;;17.13;14.90;;;1.20;64.40;;;-142.21;100.00;112049.66;5111839;28;20298;-80
2021/12/22 06:10:15;;;;;;;19.92;15.43;;;1.20;64.30;;;-142.21;100.00;112049.66;5124879;28;20246;-77
2021/12/22 06:12:44;;;;;;;20.48;15.15;;;1.40;63.90;;;-142.21;100.00;112049.66;5132793;28;20247;-74
2021/12/22 06:15:11;;;;;;;17.98;14.55;;;1.30;63.40;;;-142.21;100.00;112049.66;5117605;28;20245;-81
2021/12/22 06:17:38;;;;;;;17.10;14.70;;;1.40;63.60;;;-142.21;100.00;112049.66;5116459;28;20207;-79
2021/12/22 06:20:08;;;;;;;20.30;15.25;;;1.40;63.30;;;-142.21;100.00;112049.66;5115947;28;20668;-79
2021/12/22 06:22:36;;;;;;;17.45;14.50;;;1.30;63.50;;;-142.21;100.00;112049.66;5116382;28;20636;-80
2021/12/22 06:25:05;;;;;;;17.90;14.65;;;1.30;63.80;;;-142.21;100.00;112049.66;5116051;28;20731;-77
2021/12/22 06:27:32;;;;;;;20.42;15.60;;;1.30;64.20;;;-142.21;100.00;112049.66;5116040;28;20208;-80
2021/12/22 06:30:01;;;;;;;21.15;15.05;;;1.30;64.20;;;-142.21;100.00;112049.66;5115663;28;20242;-79
2021/12/22 06:32:28;;;;;;;20.65;15.80;;;1.30;64.70;;;-142.21;100.00;112049.66;5116422;28;20672;-79
2021/12/22 06:34:55;;;;;;;18.80;15.15;;;1.30;63.80;;;-142.21;100.00;112049.66;5115263;28;20231;-80
2021/12/22 06:37:23;;;;;;;20.83;15.23;;;1.30;63.60;;;-142.21;100.00;112049.66;5116205;28;20218;-78
2021/12/22 06:39:56;;;;;;;22.80;14.73;;;1.20;63.70;;;-142.21;100.00;112049.66;5115117;28;20290;-79
2021/12/22 06:42:24;;;;;;;17.65;14.57;;;1.40;63.50;;;-142.21;100.00;112049.66;5116251;28;20635;-79
2021/12/22 06:44:54;;;;;;;19.00;13.73;;;1.40;62.90;;;-142.21;100.00;112049.66;5116410;28;20621;-79
2021/12/22 06:47:22;;;;;;;21.15;15.32;;;1.40;62.80;;;-142.21;100.00;112049.66;5113811;28;20299;-77
2021/12/22 06:49:50;;;;;;;20.13;15.48;;;1.50;62.20;;;-142.21;100.00;112049.66;5116484;28;20243;-79
2021/12/22 06:52:23;;;;;;;16.77;14.15;;;1.50;62.00;;;-142.21;100.00;112049.66;5111404;28;20223;-80
2021/12/22 06:54:51;;;;;;;19.88;15.50;;;1.50;61.70;;;-142.21;100.00;112049.66;5116118;28;20681;-79
2021/12/22 06:57:20;;;;;;;19.92;15.35;;;1.50;61.60;;;-142.21;100.00;112049.66;5115249;28;20208;-80
2021/12/22 06:59:49;;;;;;;20.52;15.63;;;1.40;61.60;;;-142.21;100.00;112049.66;5115267;28;20279;-79
2021/12/22 07:02:17;;;;;;;17.75;15.30;;;1.40;62.10;;;-142.21;100.00;112049.66;5115328;28;20289;-78
2021/12/22 07:04:45;;;;;;;19.30;14.95;;;1.40;62.20;;;-142.21;100.00;112049.66;5115795;28;20258;-78
2021/12/22 07:07:12;;;;;;;19.40;15.25;;;1.40;61.90;;;-142.21;100.00;112049.66;5114577;28;20286;-78
2021/12/22 07:09:39;;;;;;;18.70;14.35;;;1.30;61.90;;;-142.21;100.00;112049.66;5115702;28;20247;-79
2021/12/22 07:12:10;;;;;;;18.50;14.75;;;1.30;61.50;;;-142.21;100.00;112049.66;5115214;28;20246;-81
2021/12/22 07:14:38;;;;;;;15.98;13.48;;;1.30;60.90;;;-142.21;100.00;112049.66;5114657;27;20252;-80
2021/12/22 07:17:05;;;;;;;17.67;14.55;;;1.20;60.70;;;-142.21;100.00;112049.66;5115364;28;20200;-79
2021/12/22 07:19:33;;;;;;;18.63;14.55;;;1.10;60.50;;;-142.21;100.00;112049.66;5114727;28;20235;-80
2021/12/22 07:22:01;;;;;;;18.98;13.57;;;1.10;60.70;;;-142.21;100.00;112049.66;5114963;28;20742;-79
2021/12/22 07:24:28;;;;;;;20.52;14.43;;;1.00;60.50;;;-142.21;100.00;112049.66;5113406;28;20224;-79
2021/12/22 07:26:56;;;;;;;18.77;14.20;;;0.90;60.40;;;-142.21;100.00;112049.66;5114419;28;20290;-79
2021/12/22 07:29:23;;;;;;;16.35;13.98;;;0.70;60.20;;;-142.21;100.00;112049.66;5114642;28;20245;-79
2021/12/22 07:31:50;;;;;;;17.60;14.70;;;0.60;61.40;;;-142.21;100.00;112049.66;5114828;28;20227;-79
2021/12/22 07:34:33;;;;;;;16.73;13.85;;;0.60;61.10;;;-142.21;100.00;112049.66;5114333;28;20231;-79
2021/12/22 07:37:14;;;;;;;16.70;12.90;;;0.40;61.70;;;-142.21;100.00;112049.66;5114530;28;20188;-79
2021/12/22 07:39:42;;;;;;;16.60;13.23;;;0.30;61.90;;;-142.21;100.00;112049.66;5114148;28;20192;-79
2021/12/22 07:42:09;;;;;;;17.52;14.07;;;0.10;62.00;;;-142.21;100.00;112049.66;5114508;28;20230;-79
2021/12/22 07:44:36;;;;;;;19.60;14.15;;;0.10;62.00;;;-142.21;100.00;112049.66;5113515;28;20829;-79
2021/12/22 07:47:04;;;;;;;18.02;13.88;;;0.10;62.00;;;-142.21;100.00;112049.66;5113447;28;20229;-80
2021/12/22 07:49:31;;;;;;;19.05;13.82;;;0.00;62.10;;;-142.21;100.00;112049.66;5113216;28;20604;-79
2021/12/22 07:51:59;;;;;;;18.42;14.25;;;0.00;62.00;;;-142.21;100.00;112049.66;5113591;28;20267;-79
2021/12/22 07:54:34;;;;;;;19.30;14.80;;;0.00;61.90;;;-142.21;100.00;112049.66;5113859;28;20262;-80
2021/12/22 07:57:01;;;;;;;17.17;13.30;;;0.00;61.70;;;-142.21;100.00;112049.66;5114382;28;20230;-78
2021/12/22 07:59:28;;;;;;;19.08;14.32;;;0.00;61.40;;;-142.21;100.00;112049.66;5114310;28;20204;-79
2021/12/22 08:01:56;;;;;;;17.75;13.48;;;0.00;61.50;;;-142.21;100.00;112049.66;5113742;28;20199;-80
2021/12/22 08:04:24;;;;;;;21.27;13.15;;;0.00;61.40;;;-142.21;100.00;112049.66;5108760;28;20251;-78
2021/12/22 08:06:51;;;;;;;17.75;13.38;;;0.00;61.40;;;-142.21;100.00;112049.66;5113843;28;20230;-79
2021/12/22 08:09:25;;;;;;;18.20;13.77;;;-0.10;61.40;;;-142.21;100.00;112049.66;5114004;28;20283;-80
2021/12/22 08:11:54;;;;;;;17.48;13.75;;;0.00;61.10;;;-142.21;100.00;112049.66;5114252;28;20631;-79
2021/12/22 08:14:22;;;;;;;18.38;14.77;;;0.00;61.60;;;-142.21;100.00;112049.66;5114221;28;20234;-79
2021/12/22 08:16:50;;;;;;;18.90;13.70;;;0.00;61.70;;;-142.21;100.00;112049.66;5113788;28;20738;-79
2021/12/22 08:19:17;;;;;;;20.55;14.25;;;-0.10;61.90;;;-142.21;100.00;112049.66;5114678;28;20563;-77
2021/12/22 08:21:45;;;;;;;31.27;14.43;;;-0.10;62.30;;;-142.21;100.00;112049.66;5113827;28;20252;-79
2021/12/22 08:24:14;;;;;;;22.02;15.30;;;-0.10;63.00;;;-142.21;100.00;112049.66;5113486;27;20310;-79
2021/12/22 08:26:41;;;;;;;20.33;13.77;;;-0.30;63.00;;;-142.21;100.00;112049.66;5114263;28;20295;-80
2021/12/22 08:29:11;;;;;;;21.92;14.98;;;-0.30;63.70;;;-142.21;100.00;112049.66;5113648;28;20258;-78
2021/12/22 08:31:39;;;;;;;26.50;15.32;;;-0.30;64.10;;;-142.21;100.00;112049.66;5110120;28;20609;-80
2021/12/22 08:34:09;;;;;;;24.30;14.90;;;-0.20;64.10;;;-142.21;100.00;112049.66;5093221;28;20282;-78
2021/12/22 08:39:26;;;;;;;31.60;15.90;;;0.10;63.60;;;-142.21;100.00;112049.66;5092976;28;20192;-78
2021/12/22 08:41:59;;;;;;;70.57;16.52;;;0.10;63.70;;;-142.21;100.00;112049.66;5109769;28;20216;-79
2021/12/22 08:44:28;;;;;;;119.78;19.58;;;0.00;64.50;;;-142.21;100.00;112049.66;5112966;28;20231;-79
2021/12/22 08:46:56;;;;;;;83.40;17.20;;;-0.10;64.90;;;-142.21;100.00;112049.66;5113695;28;20269;-79
2021/12/22 08:49:24;;;;;;;30.90;16.05;;;-0.10;65.30;;;-142.21;100.00;112049.66;5113005;28;20196;-78
2021/12/22 08:51:52;;;;;;;27.48;14.70;;;-0.10;65.60;;;-142.21;100.00;112049.66;5114069;28;20288;-78
2021/12/22 08:54:20;;;;;;;32.65;17.15;;;0.00;65.80;;;-142.21;100.00;112049.66;5112626;28;20671;-78
2021/12/22 08:56:48;;;;;;;38.08;16.65;;;0.00;65.50;;;-142.21;100.00;112049.66;5113108;28;20200;-79
2021/12/22 08:59:17;;;;;;;26.48;16.27;;;0.10;65.50;;;-142.21;100.00;112049.66;5112987;28;20203;-78
2021/12/22 09:01:46;;;;;;;24.50;16.40;;;0.20;65.70;;;-142.21;100.00;112049.66;5113138;28;20246;-78
2021/12/22 09:04:13;;;;;;;24.48;17.13;;;0.20;65.40;;;-142.21;100.00;112049.66;5113045;28;20703;-77
2021/12/22 09:06:41;;;;;;;23.25;16.75;;;0.30;65.00;;;-142.21;100.00;112049.66;5113351;27;20196;-79
2021/12/22 09:09:10;;;;;;;29.40;18.02;;;0.30;65.20;;;-142.21;100.00;112049.66;5112819;28;20212;-78
2021/12/22 09:11:39;;;;;;;20.92;15.85;;;0.40;64.80;;;-142.21;100.00;112049.66;5112567;28;20270;-78
2021/12/22 09:14:07;;;;;;;21.95;16.10;;;0.60;64.00;;;-142.21;100.00;112049.66;5113112;28;20229;-78
2021/12/22 09:16:35;;;;;;;21.15;15.90;;;0.80;63.70;;;-142.21;100.00;112049.66;5116446;27;20226;-78
2021/12/22 09:19:05;;;;;;;28.10;18.10;;;1.00;63.50;;;-142.21;100.00;112049.66;5133579;27;20210;-78
2021/12/22 09:21:33;;;;;;;20.90;15.45;;;1.20;62.90;;;-142.21;100.00;112049.66;5132968;27;20247;-77
2021/12/22 09:24:01;;;;;;;19.48;15.23;;;1.30;61.50;;;-142.21;100.00;112049.66;5133940;27;20307;-76
2021/12/22 09:26:28;;;;;;;20.35;15.30;;;1.30;60.20;;;-142.21;100.00;112049.66;5129852;27;20204;-78
2021/12/22 09:28:57;;;;;;;20.67;15.63;;;1.40;60.90;;;-142.21;100.00;112049.66;5098226;28;20200;-79
2021/12/22 09:31:24;;;;;;;23.63;16.55;;;1.40;61.10;;;-142.21;100.00;112049.66;5112951;28;20300;-78
2021/12/22 09:33:53;;;;;;;23.02;15.82;;;1.30;61.70;;;-142.21;100.00;112049.66;5109674;28;20228;-76
2021/12/22 09:36:23;;;;;;;22.17;16.50;;;1.30;62.10;;;-142.21;100.00;112049.66;5127328;27;20184;-76
2021/12/22 09:38:51;;;;;;;19.95;15.77;;;1.30;62.00;;;-142.21;100.00;112049.66;5109597;28;20177;-79
2021/12/22 09:41:18;;;;;;;26.45;18.48;;;1.30;61.90;;;-142.21;100.00;112049.66;5092483;28;20562;-78
2021/12/22 09:43:45;;;;;;;24.88;18.17;;;1.20;62.20;;;-142.21;100.00;112049.66;5091607;28;20232;-77
2021/12/22 09:46:18;;;;;;;22.35;17.25;;;1.20;62.10;;;-142.21;100.00;112049.66;5110206;28;20245;-78
2021/12/22 09:48:52;;;;;;;25.38;18.13;;;1.30;62.60;;;-142.21;100.00;112049.66;5111933;28;20218;-79
2021/12/22 09:54:10;;;;;;;27.30;18.65;;;1.40;62.80;;;-142.21;100.00;112049.66;5112528;28;20610;-79
2021/12/22 09:56:42;;;;;;;26.10;17.67;;;1.50;62.70;;;-142.21;100.00;112049.66;5094338;28;20212;-78
2021/12/22 09:59:11;;;;;;;24.42;17.58;;;1.50;62.60;;;-142.21;100.00;112049.66;5092215;28;20817;-78
2021/12/22 10:01:39;;;;;;;24.08;17.85;;;1.60;62.70;;;-142.21;100.00;112049.66;5092224;28;20208;-77
2021/12/22 10:04:06;;;;;;;26.73;18.70;;;1.60;62.40;;;-142.21;100.00;112049.66;5091794;28;20220;-78
2021/12/22 10:06:35;;;;;;;26.25;19.27;;;1.60;62.90;;;-142.21;100.00;112049.66;5107215;28;20203;-78